sensor_id;sensor_type;location;lat;lon;timestamp;P1;durP1;ratioP1;P2;durP2;ratioP2
14470;SDS011;7321;50.802;4.336;2022-08-01T00:00:26;5.15;;;2.30;;
14470;SDS011;7321;50.802;4.336;2022-08-01T00:02:52;3.47;;;1.80;;
14470;SDS011;7321;50.802;4.336;2022-08-01T00:05:18;2.20;;;2.00;;
14470;SDS011;7321;50.802;4.336;2022-08-01T00:07:45;4.00;;;2.25;;
14470;SDS011;7321;50.802;4.336;2022-08-01T00:10:12;2.40;;;2.20;;
14470;SDS011;7321;50.802;4.336;2022-08-01T00:12:39;3.03;;;2.28;;
14470;SDS011;7321;50.802;4.336;2022-08-01T00:15:06;3.33;;;2.13;;
14470;SDS011;7321;50.802;4.336;2022-08-01T00:17:33;3.45;;;2.05;;
14470;SDS011;7321;50.802;4.336;2022-08-01T00:19:59;2.75;;;2.10;;
14470;SDS011;7321;50.802;4.336;2022-08-01T00:22:25;4.25;;;2.03;;
14470;SDS011;7321;50.802;4.336;2022-08-01T00:24:50;2.80;;;2.38;;
14470;SDS011;7321;50.802;4.336;2022-08-01T00:27:16;3.38;;;2.38;;
14470;SDS011;7321;50.802;4.336;2022-08-01T00:29:42;3.80;;;2.20;;
14470;SDS011;7321;50.802;4.336;2022-08-01T00:32:08;3.60;;;2.90;;
14470;SDS011;7321;50.802;4.336;2022-08-01T00:34:33;4.40;;;2.50;;
14470;SDS011;7321;50.802;4.336;2022-08-01T00:36:59;3.72;;;2.58;;
14470;SDS011;7321;50.802;4.336;2022-08-01T00:39:25;3.72;;;2.22;;
14470;SDS011;7321;50.802;4.336;2022-08-01T00:41:51;3.25;;;2.50;;
14470;SDS011;7321;50.802;4.336;2022-08-01T00:44:17;3.75;;;2.60;;
14470;SDS011;7321;50.802;4.336;2022-08-01T00:46:43;4.65;;;2.97;;
14470;SDS011;7321;50.802;4.336;2022-08-01T00:49:08;4.63;;;2.78;;
14470;SDS011;7321;50.802;4.336;2022-08-01T00:51:34;3.25;;;2.20;;
14470;SDS011;7321;50.802;4.336;2022-08-01T00:54:00;3.65;;;2.40;;
14470;SDS011;7321;50.802;4.336;2022-08-01T00:56:26;3.78;;;2.90;;
14470;SDS011;7321;50.802;4.336;2022-08-01T00:58:54;3.15;;;2.47;;
14470;SDS011;7321;50.802;4.336;2022-08-01T01:01:20;3.78;;;2.58;;
14470;SDS011;7321;50.802;4.336;2022-08-01T01:03:50;4.30;;;2.60;;
14470;SDS011;7321;50.802;4.336;2022-08-01T01:09:02;3.60;;;2.83;;
14470;SDS011;7321;50.802;4.336;2022-08-01T01:11:38;4.05;;;2.63;;
14470;SDS011;7321;50.802;4.336;2022-08-01T01:14:13;3.22;;;2.65;;
14470;SDS011;7321;50.802;4.336;2022-08-01T01:16:48;5.22;;;2.97;;
14470;SDS011;7321;50.802;4.336;2022-08-01T01:19:16;2.95;;;2.67;;
14470;SDS011;7321;50.802;4.336;2022-08-01T01:24:45;5.13;;;3.60;;
14470;SDS011;7321;50.802;4.336;2022-08-01T01:27:36;4.75;;;3.30;;
14470;SDS011;7321;50.802;4.336;2022-08-01T01:30:10;6.82;;;3.63;;
14470;SDS011;7321;50.802;4.336;2022-08-01T01:32:41;5.72;;;3.50;;
14470;SDS011;7321;50.802;4.336;2022-08-01T01:35:12;4.85;;;3.47;;
14470;SDS011;7321;50.802;4.336;2022-08-01T01:37:42;5.78;;;4.07;;
14470;SDS011;7321;50.802;4.336;2022-08-01T01:40:11;5.88;;;4.53;;
14470;SDS011;7321;50.802;4.336;2022-08-01T01:42:39;7.15;;;5.80;;
14470;SDS011;7321;50.802;4.336;2022-08-01T01:45:07;8.65;;;5.93;;
14470;SDS011;7321;50.802;4.336;2022-08-01T01:47:33;10.23;;;6.35;;
14470;SDS011;7321;50.802;4.336;2022-08-01T01:50:01;10.32;;;7.18;;
14470;SDS011;7321;50.802;4.336;2022-08-01T01:52:28;11.43;;;6.80;;
14470;SDS011;7321;50.802;4.336;2022-08-01T01:54:56;10.98;;;7.72;;
14470;SDS011;7321;50.802;4.336;2022-08-01T01:57:23;11.50;;;6.88;;
14470;SDS011;7321;50.802;4.336;2022-08-01T01:59:50;9.57;;;7.05;;
14470;SDS011;7321;50.802;4.336;2022-08-01T02:02:18;9.80;;;6.90;;
14470;SDS011;7321;50.802;4.336;2022-08-01T02:04:46;11.32;;;7.20;;
14470;SDS011;7321;50.802;4.336;2022-08-01T02:07:13;12.00;;;7.90;;
14470;SDS011;7321;50.802;4.336;2022-08-01T02:09:42;11.60;;;7.40;;
14470;SDS011;7321;50.802;4.336;2022-08-01T02:12:11;9.50;;;6.82;;
14470;SDS011;7321;50.802;4.336;2022-08-01T02:14:37;10.77;;;7.53;;
14470;SDS011;7321;50.802;4.336;2022-08-01T02:17:07;13.15;;;8.60;;
14470;SDS011;7321;50.802;4.336;2022-08-01T02:19:36;13.40;;;9.23;;
14470;SDS011;7321;50.802;4.336;2022-08-01T02:22:19;11.93;;;9.07;;
14470;SDS011;7321;50.802;4.336;2022-08-01T02:24:55;13.60;;;9.45;;
14470;SDS011;7321;50.802;4.336;2022-08-01T02:27:28;13.95;;;8.60;;
14470;SDS011;7321;50.802;4.336;2022-08-01T02:30:00;15.23;;;9.88;;
14470;SDS011;7321;50.802;4.336;2022-08-01T02:35:28;13.65;;;9.68;;
14470;SDS011;7321;50.802;4.336;2022-08-01T02:37:57;16.70;;;10.23;;
14470;SDS011;7321;50.802;4.336;2022-08-01T02:40:26;15.65;;;9.82;;
14470;SDS011;7321;50.802;4.336;2022-08-01T02:42:53;15.32;;;9.98;;
14470;SDS011;7321;50.802;4.336;2022-08-01T02:45:22;17.38;;;10.73;;
14470;SDS011;7321;50.802;4.336;2022-08-01T02:47:50;16.48;;;9.95;;
14470;SDS011;7321;50.802;4.336;2022-08-01T02:50:20;14.82;;;10.05;;
14470;SDS011;7321;50.802;4.336;2022-08-01T02:52:49;13.98;;;10.13;;
14470;SDS011;7321;50.802;4.336;2022-08-01T02:55:17;16.08;;;10.30;;
14470;SDS011;7321;50.802;4.336;2022-08-01T02:57:44;15.80;;;10.15;;
14470;SDS011;7321;50.802;4.336;2022-08-01T03:00:16;14.48;;;9.73;;
14470;SDS011;7321;50.802;4.336;2022-08-01T03:02:42;12.77;;;9.82;;
14470;SDS011;7321;50.802;4.336;2022-08-01T03:05:10;13.18;;;8.98;;
14470;SDS011;7321;50.802;4.336;2022-08-01T03:07:38;16.88;;;9.90;;
14470;SDS011;7321;50.802;4.336;2022-08-01T03:10:05;11.63;;;8.68;;
14470;SDS011;7321;50.802;4.336;2022-08-01T03:12:32;11.05;;;7.97;;
14470;SDS011;7321;50.802;4.336;2022-08-01T03:14:59;9.20;;;7.25;;
14470;SDS011;7321;50.802;4.336;2022-08-01T03:17:28;9.32;;;7.18;;
14470;SDS011;7321;50.802;4.336;2022-08-01T03:19:58;10.68;;;7.75;;
14470;SDS011;7321;50.802;4.336;2022-08-01T03:22:27;11.80;;;8.40;;
14470;SDS011;7321;50.802;4.336;2022-08-01T03:24:56;14.48;;;9.73;;
14470;SDS011;7321;50.802;4.336;2022-08-01T03:27:24;15.48;;;10.27;;
14470;SDS011;7321;50.802;4.336;2022-08-01T03:29:51;18.80;;;11.52;;
14470;SDS011;7321;50.802;4.336;2022-08-01T03:32:19;17.02;;;10.75;;
14470;SDS011;7321;50.802;4.336;2022-08-01T03:34:47;18.45;;;11.27;;
14470;SDS011;7321;50.802;4.336;2022-08-01T03:39:47;16.95;;;12.07;;
14470;SDS011;7321;50.802;4.336;2022-08-01T03:42:19;21.10;;;11.75;;
14470;SDS011;7321;50.802;4.336;2022-08-01T03:44:52;21.60;;;11.68;;
14470;SDS011;7321;50.802;4.336;2022-08-01T03:47:22;19.38;;;11.48;;
14470;SDS011;7321;50.802;4.336;2022-08-01T03:49:54;18.92;;;11.85;;
14470;SDS011;7321;50.802;4.336;2022-08-01T03:52:21;16.17;;;11.23;;
14470;SDS011;7321;50.802;4.336;2022-08-01T03:54:49;17.77;;;10.35;;
14470;SDS011;7321;50.802;4.336;2022-08-01T03:57:18;19.73;;;10.35;;
14470;SDS011;7321;50.802;4.336;2022-08-01T03:59:45;16.83;;;11.50;;
14470;SDS011;7321;50.802;4.336;2022-08-01T04:02:11;16.00;;;10.57;;
14470;SDS011;7321;50.802;4.336;2022-08-01T04:04:38;18.20;;;10.57;;
14470;SDS011;7321;50.802;4.336;2022-08-01T04:07:05;22.85;;;12.52;;
14470;SDS011;7321;50.802;4.336;2022-08-01T04:09:45;17.42;;;11.63;;
14470;SDS011;7321;50.802;4.336;2022-08-01T04:12:11;19.75;;;13.00;;
14470;SDS011;7321;50.802;4.336;2022-08-01T04:14:38;16.70;;;12.32;;
14470;SDS011;7321;50.802;4.336;2022-08-01T04:17:03;18.95;;;13.25;;
14470;SDS011;7321;50.802;4.336;2022-08-01T04:19:29;20.60;;;13.55;;
14470;SDS011;7321;50.802;4.336;2022-08-01T04:21:55;17.23;;;12.35;;
14470;SDS011;7321;50.802;4.336;2022-08-01T04:24:21;22.10;;;12.63;;
14470;SDS011;7321;50.802;4.336;2022-08-01T04:26:49;17.48;;;12.32;;
14470;SDS011;7321;50.802;4.336;2022-08-01T04:29:17;18.17;;;12.50;;
14470;SDS011;7321;50.802;4.336;2022-08-01T04:31:45;18.88;;;12.30;;
14470;SDS011;7321;50.802;4.336;2022-08-01T04:34:14;15.27;;;12.30;;
14470;SDS011;7321;50.802;4.336;2022-08-01T04:36:42;19.90;;;13.57;;
14470;SDS011;7321;50.802;4.336;2022-08-01T04:39:09;17.90;;;12.52;;
14470;SDS011;7321;50.802;4.336;2022-08-01T04:41:36;20.70;;;12.00;;
14470;SDS011;7321;50.802;4.336;2022-08-01T04:44:04;15.43;;;11.68;;
14470;SDS011;7321;50.802;4.336;2022-08-01T04:46:30;15.63;;;11.40;;
14470;SDS011;7321;50.802;4.336;2022-08-01T04:48:58;17.40;;;12.43;;
14470;SDS011;7321;50.802;4.336;2022-08-01T04:51:25;14.65;;;12.10;;
14470;SDS011;7321;50.802;4.336;2022-08-01T04:53:51;16.88;;;12.90;;
14470;SDS011;7321;50.802;4.336;2022-08-01T04:56:17;18.20;;;13.10;;
14470;SDS011;7321;50.802;4.336;2022-08-01T04:58:46;19.50;;;13.82;;
14470;SDS011;7321;50.802;4.336;2022-08-01T05:01:12;20.35;;;14.48;;
14470;SDS011;7321;50.802;4.336;2022-08-01T05:03:38;19.55;;;14.05;;
14470;SDS011;7321;50.802;4.336;2022-08-01T05:06:04;22.05;;;14.90;;
14470;SDS011;7321;50.802;4.336;2022-08-01T05:08:30;21.10;;;15.85;;
14470;SDS011;7321;50.802;4.336;2022-08-01T05:10:55;23.20;;;15.15;;
14470;SDS011;7321;50.802;4.336;2022-08-01T05:13:24;21.85;;;15.13;;
14470;SDS011;7321;50.802;4.336;2022-08-01T05:15:50;18.27;;;13.85;;
14470;SDS011;7321;50.802;4.336;2022-08-01T05:18:17;21.70;;;14.52;;
14470;SDS011;7321;50.802;4.336;2022-08-01T05:20:43;20.42;;;14.60;;
14470;SDS011;7321;50.802;4.336;2022-08-01T05:23:09;20.63;;;15.05;;
14470;SDS011;7321;50.802;4.336;2022-08-01T05:25:35;18.42;;;13.70;;
14470;SDS011;7321;50.802;4.336;2022-08-01T05:28:00;18.52;;;14.82;;
14470;SDS011;7321;50.802;4.336;2022-08-01T05:30:26;18.60;;;14.45;;
14470;SDS011;7321;50.802;4.336;2022-08-01T05:32:52;25.77;;;14.60;;
14470;SDS011;7321;50.802;4.336;2022-08-01T05:35:17;17.60;;;14.30;;
14470;SDS011;7321;50.802;4.336;2022-08-01T05:37:43;19.92;;;14.88;;
14470;SDS011;7321;50.802;4.336;2022-08-01T05:40:09;20.83;;;15.02;;
14470;SDS011;7321;50.802;4.336;2022-08-01T05:42:36;20.35;;;14.43;;
14470;SDS011;7321;50.802;4.336;2022-08-01T05:45:01;21.40;;;14.93;;
14470;SDS011;7321;50.802;4.336;2022-08-01T05:47:27;17.23;;;12.73;;
14470;SDS011;7321;50.802;4.336;2022-08-01T05:49:53;20.10;;;14.02;;
14470;SDS011;7321;50.802;4.336;2022-08-01T05:52:18;17.40;;;13.75;;
14470;SDS011;7321;50.802;4.336;2022-08-01T05:54:44;17.55;;;14.00;;
14470;SDS011;7321;50.802;4.336;2022-08-01T05:57:10;18.40;;;12.73;;
14470;SDS011;7321;50.802;4.336;2022-08-01T05:59:36;17.05;;;13.60;;
14470;SDS011;7321;50.802;4.336;2022-08-01T06:02:01;14.30;;;12.05;;
14470;SDS011;7321;50.802;4.336;2022-08-01T06:04:27;15.85;;;11.20;;
14470;SDS011;7321;50.802;4.336;2022-08-01T06:06:53;12.95;;;11.50;;
14470;SDS011;7321;50.802;4.336;2022-08-01T06:09:19;14.13;;;10.15;;
14470;SDS011;7321;50.802;4.336;2022-08-01T06:11:44;10.95;;;9.63;;
14470;SDS011;7321;50.802;4.336;2022-08-01T06:14:10;10.85;;;9.30;;
14470;SDS011;7321;50.802;4.336;2022-08-01T06:16:36;9.75;;;8.75;;
14470;SDS011;7321;50.802;4.336;2022-08-01T06:19:01;9.63;;;8.55;;
14470;SDS011;7321;50.802;4.336;2022-08-01T06:21:27;12.00;;;8.50;;
14470;SDS011;7321;50.802;4.336;2022-08-01T06:23:53;10.10;;;8.52;;
14470;SDS011;7321;50.802;4.336;2022-08-01T06:26:19;9.05;;;8.15;;
14470;SDS011;7321;50.802;4.336;2022-08-01T06:28:45;9.32;;;7.65;;
14470;SDS011;7321;50.802;4.336;2022-08-01T06:31:11;8.25;;;7.45;;
14470;SDS011;7321;50.802;4.336;2022-08-01T06:33:38;10.38;;;8.07;;
14470;SDS011;7321;50.802;4.336;2022-08-01T06:36:04;8.95;;;8.05;;
14470;SDS011;7321;50.802;4.336;2022-08-01T06:38:33;13.68;;;8.02;;
14470;SDS011;7321;50.802;4.336;2022-08-01T06:41:01;10.65;;;8.55;;
14470;SDS011;7321;50.802;4.336;2022-08-01T06:43:27;9.55;;;7.70;;
14470;SDS011;7321;50.802;4.336;2022-08-01T06:45:53;8.90;;;7.78;;
14470;SDS011;7321;50.802;4.336;2022-08-01T06:48:19;8.77;;;7.65;;
14470;SDS011;7321;50.802;4.336;2022-08-01T06:50:45;8.10;;;6.97;;
14470;SDS011;7321;50.802;4.336;2022-08-01T06:53:11;8.23;;;6.63;;
14470;SDS011;7321;50.802;4.336;2022-08-01T06:55:36;8.45;;;6.30;;
14470;SDS011;7321;50.802;4.336;2022-08-01T06:58:02;7.03;;;6.15;;
14470;SDS011;7321;50.802;4.336;2022-08-01T07:00:28;10.73;;;5.38;;
14470;SDS011;7321;50.802;4.336;2022-08-01T07:02:54;5.53;;;5.03;;
14470;SDS011;7321;50.802;4.336;2022-08-01T07:05:22;6.13;;;4.93;;
14470;SDS011;7321;50.802;4.336;2022-08-01T07:07:51;5.38;;;4.82;;
14470;SDS011;7321;50.802;4.336;2022-08-01T07:10:16;7.13;;;6.43;;
14470;SDS011;7321;50.802;4.336;2022-08-01T07:12:43;8.73;;;6.43;;
14470;SDS011;7321;50.802;4.336;2022-08-01T07:15:09;7.05;;;5.22;;
14470;SDS011;7321;50.802;4.336;2022-08-01T07:17:36;7.00;;;4.80;;
14470;SDS011;7321;50.802;4.336;2022-08-01T07:20:03;6.47;;;4.40;;
14470;SDS011;7321;50.802;4.336;2022-08-01T07:22:30;5.18;;;4.68;;
14470;SDS011;7321;50.802;4.336;2022-08-01T07:24:55;5.07;;;4.45;;
14470;SDS011;7321;50.802;4.336;2022-08-01T07:27:21;5.05;;;4.38;;
14470;SDS011;7321;50.802;4.336;2022-08-01T07:29:56;5.00;;;4.60;;
14470;SDS011;7321;50.802;4.336;2022-08-01T07:32:22;5.63;;;5.03;;
14470;SDS011;7321;50.802;4.336;2022-08-01T07:34:48;5.70;;;4.88;;
14470;SDS011;7321;50.802;4.336;2022-08-01T07:37:13;4.60;;;4.10;;
14470;SDS011;7321;50.802;4.336;2022-08-01T07:39:39;5.00;;;4.43;;
14470;SDS011;7321;50.802;4.336;2022-08-01T07:42:05;4.70;;;4.22;;
14470;SDS011;7321;50.802;4.336;2022-08-01T07:44:31;6.13;;;4.15;;
14470;SDS011;7321;50.802;4.336;2022-08-01T07:46:57;4.93;;;3.95;;
14470;SDS011;7321;50.802;4.336;2022-08-01T07:49:26;4.63;;;3.95;;
14470;SDS011;7321;50.802;4.336;2022-08-01T07:51:52;5.57;;;4.00;;
14470;SDS011;7321;50.802;4.336;2022-08-01T07:54:19;4.53;;;4.13;;
14470;SDS011;7321;50.802;4.336;2022-08-01T07:56:45;4.55;;;4.10;;
14470;SDS011;7321;50.802;4.336;2022-08-01T07:59:11;5.60;;;5.10;;
14470;SDS011;7321;50.802;4.336;2022-08-01T08:01:36;4.53;;;4.03;;
14470;SDS011;7321;50.802;4.336;2022-08-01T08:04:02;5.20;;;4.70;;
14470;SDS011;7321;50.802;4.336;2022-08-01T08:06:28;5.32;;;4.82;;
14470;SDS011;7321;50.802;4.336;2022-08-01T08:08:54;5.63;;;5.00;;
14470;SDS011;7321;50.802;4.336;2022-08-01T08:11:19;5.30;;;4.80;;
14470;SDS011;7321;50.802;4.336;2022-08-01T08:13:45;5.10;;;4.05;;
14470;SDS011;7321;50.802;4.336;2022-08-01T08:16:11;3.60;;;3.25;;
14470;SDS011;7321;50.802;4.336;2022-08-01T08:18:36;3.50;;;3.20;;
14470;SDS011;7321;50.802;4.336;2022-08-01T08:21:05;3.45;;;3.10;;
14470;SDS011;7321;50.802;4.336;2022-08-01T08:23:31;3.47;;;3.17;;
14470;SDS011;7321;50.802;4.336;2022-08-01T08:26:15;3.35;;;3.05;;
14470;SDS011;7321;50.802;4.336;2022-08-01T08:28:41;2.55;;;2.35;;
14470;SDS011;7321;50.802;4.336;2022-08-01T08:31:07;3.40;;;3.13;;
14470;SDS011;7321;50.802;4.336;2022-08-01T08:33:33;2.75;;;2.55;;
14470;SDS011;7321;50.802;4.336;2022-08-01T08:35:59;4.25;;;2.72;;
14470;SDS011;7321;50.802;4.336;2022-08-01T08:38:24;2.45;;;2.25;;
14470;SDS011;7321;50.802;4.336;2022-08-01T08:40:52;2.63;;;2.42;;
14470;SDS011;7321;50.802;4.336;2022-08-01T08:43:18;3.10;;;2.80;;
14470;SDS011;7321;50.802;4.336;2022-08-01T08:45:44;3.60;;;3.10;;
14470;SDS011;7321;50.802;4.336;2022-08-01T08:48:11;4.60;;;2.83;;
14470;SDS011;7321;50.802;4.336;2022-08-01T08:50:38;3.50;;;2.72;;
14470;SDS011;7321;50.802;4.336;2022-08-01T08:53:06;2.95;;;2.75;;
14470;SDS011;7321;50.802;4.336;2022-08-01T08:55:35;2.72;;;2.50;;
14470;SDS011;7321;50.802;4.336;2022-08-01T08:58:02;3.42;;;2.78;;
14470;SDS011;7321;50.802;4.336;2022-08-01T09:00:31;2.90;;;2.65;;
14470;SDS011;7321;50.802;4.336;2022-08-01T09:02:57;5.82;;;3.60;;
14470;SDS011;7321;50.802;4.336;2022-08-01T09:05:23;4.50;;;3.60;;
14470;SDS011;7321;50.802;4.336;2022-08-01T09:07:51;4.03;;;3.72;;
14470;SDS011;7321;50.802;4.336;2022-08-01T09:10:17;4.03;;;3.72;;
14470;SDS011;7321;50.802;4.336;2022-08-01T09:15:49;6.03;;;3.50;;
14470;SDS011;7321;50.802;4.336;2022-08-01T09:18:25;3.75;;;3.00;;
14470;SDS011;7321;50.802;4.336;2022-08-01T09:21:09;3.58;;;3.38;;
14470;SDS011;7321;50.802;4.336;2022-08-01T09:23:38;3.13;;;2.90;;
14470;SDS011;7321;50.802;4.336;2022-08-01T09:26:09;3.25;;;2.90;;
14470;SDS011;7321;50.802;4.336;2022-08-01T09:28:37;3.40;;;2.90;;
14470;SDS011;7321;50.802;4.336;2022-08-01T09:31:07;4.25;;;3.30;;
14470;SDS011;7321;50.802;4.336;2022-08-01T09:36:16;3.10;;;2.88;;
14470;SDS011;7321;50.802;4.336;2022-08-01T09:38:42;2.80;;;2.60;;
14470;SDS011;7321;50.802;4.336;2022-08-01T09:41:08;2.78;;;2.58;;
14470;SDS011;7321;50.802;4.336;2022-08-01T09:43:36;2.80;;;2.60;;
14470;SDS011;7321;50.802;4.336;2022-08-01T09:46:09;3.60;;;3.30;;
14470;SDS011;7321;50.802;4.336;2022-08-01T09:48:39;3.30;;;3.08;;
14470;SDS011;7321;50.802;4.336;2022-08-01T09:51:33;3.22;;;3.00;;
14470;SDS011;7321;50.802;4.336;2022-08-01T09:54:05;4.95;;;3.10;;
14470;SDS011;7321;50.802;4.336;2022-08-01T09:56:41;3.00;;;2.75;;
14470;SDS011;7321;50.802;4.336;2022-08-01T09:59:08;3.65;;;3.35;;
14470;SDS011;7321;50.802;4.336;2022-08-01T10:01:52;2.90;;;2.70;;
14470;SDS011;7321;50.802;4.336;2022-08-01T10:04:19;3.28;;;2.85;;
14470;SDS011;7321;50.802;4.336;2022-08-01T10:06:47;2.42;;;2.33;;
14470;SDS011;7321;50.802;4.336;2022-08-01T10:09:50;2.75;;;2.55;;
14470;SDS011;7321;50.802;4.336;2022-08-01T10:12:11;2.78;;;2.05;;
14470;SDS011;7321;50.802;4.336;2022-08-01T10:14:42;2.17;;;1.92;;
14470;SDS011;7321;50.802;4.336;2022-08-01T10:17:09;2.28;;;2.05;;
14470;SDS011;7321;50.802;4.336;2022-08-01T10:19:38;2.90;;;2.30;;
14470;SDS011;7321;50.802;4.336;2022-08-01T10:22:11;2.08;;;1.98;;
14470;SDS011;7321;50.802;4.336;2022-08-01T10:24:41;2.17;;;1.30;;
14470;SDS011;7321;50.802;4.336;2022-08-01T10:27:11;1.83;;;1.52;;
14470;SDS011;7321;50.802;4.336;2022-08-01T10:29:42;1.80;;;1.50;;
14470;SDS011;7321;50.802;4.336;2022-08-01T10:32:20;2.15;;;1.80;;
14470;SDS011;7321;50.802;4.336;2022-08-01T10:34:46;2.90;;;1.70;;
14470;SDS011;7321;50.802;4.336;2022-08-01T10:37:14;1.70;;;1.60;;
14470;SDS011;7321;50.802;4.336;2022-08-01T10:39:42;2.60;;;1.63;;
14470;SDS011;7321;50.802;4.336;2022-08-01T10:42:09;1.40;;;1.30;;
14470;SDS011;7321;50.802;4.336;2022-08-01T10:44:37;2.33;;;1.50;;
14470;SDS011;7321;50.802;4.336;2022-08-01T10:47:06;1.77;;;1.45;;
14470;SDS011;7321;50.802;4.336;2022-08-01T10:49:43;1.23;;;1.20;;
14470;SDS011;7321;50.802;4.336;2022-08-01T10:52:16;1.63;;;1.13;;
14470;SDS011;7321;50.802;4.336;2022-08-01T10:54:43;1.30;;;1.20;;
14470;SDS011;7321;50.802;4.336;2022-08-01T10:57:10;1.65;;;1.17;;
14470;SDS011;7321;50.802;4.336;2022-08-01T10:59:47;1.25;;;1.15;;
14470;SDS011;7321;50.802;4.336;2022-08-01T11:02:25;2.45;;;1.38;;
14470;SDS011;7321;50.802;4.336;2022-08-01T11:05:04;2.20;;;1.38;;
14470;SDS011;7321;50.802;4.336;2022-08-01T11:07:43;2.03;;;1.50;;
14470;SDS011;7321;50.802;4.336;2022-08-01T11:10:19;1.30;;;1.20;;
14470;SDS011;7321;50.802;4.336;2022-08-01T11:12:50;3.38;;;1.20;;
14470;SDS011;7321;50.802;4.336;2022-08-01T11:15:18;2.17;;;1.17;;
14470;SDS011;7321;50.802;4.336;2022-08-01T11:17:52;4.15;;;1.17;;
14470;SDS011;7321;50.802;4.336;2022-08-01T11:20:22;1.20;;;1.20;;
14470;SDS011;7321;50.802;4.336;2022-08-01T11:30:41;0.90;;;0.90;;
14470;SDS011;7321;50.802;4.336;2022-08-01T11:33:11;1.63;;;1.52;;
14470;SDS011;7321;50.802;4.336;2022-08-01T11:36:15;1.10;;;1.00;;
14470;SDS011;7321;50.802;4.336;2022-08-01T11:41:29;2.65;;;1.02;;
14470;SDS011;7321;50.802;4.336;2022-08-01T11:46:56;2.25;;;1.05;;
14470;SDS011;7321;50.802;4.336;2022-08-01T11:52:09;1.52;;;1.00;;
14470;SDS011;7321;50.802;4.336;2022-08-01T11:54:49;1.67;;;1.10;;
14470;SDS011;7321;50.802;4.336;2022-08-01T11:57:22;1.38;;;1.10;;
14470;SDS011;7321;50.802;4.336;2022-08-01T11:59:49;2.22;;;0.90;;
14470;SDS011;7321;50.802;4.336;2022-08-01T12:02:18;0.77;;;0.77;;
14470;SDS011;7321;50.802;4.336;2022-08-01T12:04:58;1.75;;;1.10;;
14470;SDS011;7321;50.802;4.336;2022-08-01T12:07:28;1.00;;;0.90;;
14470;SDS011;7321;50.802;4.336;2022-08-01T12:10:05;1.63;;;0.90;;
14470;SDS011;7321;50.802;4.336;2022-08-01T12:12:42;1.58;;;1.10;;
14470;SDS011;7321;50.802;4.336;2022-08-01T12:15:30;1.38;;;1.27;;
14470;SDS011;7321;50.802;4.336;2022-08-01T12:17:59;1.50;;;1.10;;
14470;SDS011;7321;50.802;4.336;2022-08-01T12:20:30;3.05;;;1.15;;
14470;SDS011;7321;50.802;4.336;2022-08-01T12:23:06;1.48;;;1.00;;
14470;SDS011;7321;50.802;4.336;2022-08-01T12:25:34;2.53;;;1.10;;
14470;SDS011;7321;50.802;4.336;2022-08-01T12:28:02;1.75;;;1.00;;
14470;SDS011;7321;50.802;4.336;2022-08-01T12:30:32;1.90;;;0.90;;
14470;SDS011;7321;50.802;4.336;2022-08-01T12:33:06;1.90;;;1.20;;
14470;SDS011;7321;50.802;4.336;2022-08-01T12:35:33;0.80;;;0.80;;
14470;SDS011;7321;50.802;4.336;2022-08-01T12:38:02;1.35;;;1.05;;
14470;SDS011;7321;50.802;4.336;2022-08-01T12:40:29;1.52;;;1.10;;
14470;SDS011;7321;50.802;4.336;2022-08-01T12:43:01;1.67;;;1.10;;
14470;SDS011;7321;50.802;4.336;2022-08-01T12:48:11;1.98;;;1.40;;
14470;SDS011;7321;50.802;4.336;2022-08-01T12:50:40;1.15;;;1.05;;
14470;SDS011;7321;50.802;4.336;2022-08-01T12:53:09;1.17;;;1.00;;
14470;SDS011;7321;50.802;4.336;2022-08-01T12:58:12;1.30;;;1.15;;
14470;SDS011;7321;50.802;4.336;2022-08-01T13:00:40;1.67;;;1.50;;
14470;SDS011;7321;50.802;4.336;2022-08-01T13:03:16;2.05;;;1.00;;
14470;SDS011;7321;50.802;4.336;2022-08-01T13:05:45;1.17;;;1.08;;
14470;SDS011;7321;50.802;4.336;2022-08-01T13:10:42;3.55;;;1.20;;
14470;SDS011;7321;50.802;4.336;2022-08-01T13:13:09;1.27;;;1.08;;
14470;SDS011;7321;50.802;4.336;2022-08-01T13:15:36;1.70;;;1.60;;
14470;SDS011;7321;50.802;4.336;2022-08-01T13:24:00;2.63;;;1.40;;
14470;SDS011;7321;50.802;4.336;2022-08-01T13:26:43;2.78;;;1.45;;
14470;SDS011;7321;50.802;4.336;2022-08-01T13:29:11;4.63;;;1.33;;
14470;SDS011;7321;50.802;4.336;2022-08-01T13:31:39;1.10;;;1.05;;
14470;SDS011;7321;50.802;4.336;2022-08-01T13:34:06;1.92;;;1.30;;
14470;SDS011;7321;50.802;4.336;2022-08-01T13:36:32;2.00;;;1.38;;
14470;SDS011;7321;50.802;4.336;2022-08-01T13:38:58;2.47;;;1.30;;
14470;SDS011;7321;50.802;4.336;2022-08-01T13:41:43;2.67;;;1.88;;
14470;SDS011;7321;50.802;4.336;2022-08-01T13:44:10;2.22;;;1.30;;
14470;SDS011;7321;50.802;4.336;2022-08-01T13:46:37;2.60;;;1.48;;
14470;SDS011;7321;50.802;4.336;2022-08-01T13:49:04;2.72;;;1.58;;
14470;SDS011;7321;50.802;4.336;2022-08-01T13:51:31;1.42;;;1.33;;
14470;SDS011;7321;50.802;4.336;2022-08-01T13:53:57;1.75;;;1.48;;
14470;SDS011;7321;50.802;4.336;2022-08-01T13:56:23;2.00;;;1.55;;
14470;SDS011;7321;50.802;4.336;2022-08-01T13:58:50;1.85;;;1.13;;
14470;SDS011;7321;50.802;4.336;2022-08-01T14:01:16;1.35;;;1.20;;
14470;SDS011;7321;50.802;4.336;2022-08-01T14:03:42;2.20;;;1.50;;
14470;SDS011;7321;50.802;4.336;2022-08-01T14:06:08;1.70;;;1.33;;
14470;SDS011;7321;50.802;4.336;2022-08-01T14:08:34;2.30;;;1.40;;
14470;SDS011;7321;50.802;4.336;2022-08-01T14:11:03;2.88;;;1.10;;
14470;SDS011;7321;50.802;4.336;2022-08-01T14:13:32;2.45;;;1.35;;
14470;SDS011;7321;50.802;4.336;2022-08-01T14:15:58;2.63;;;1.17;;
14470;SDS011;7321;50.802;4.336;2022-08-01T14:18:25;2.15;;;1.60;;
14470;SDS011;7321;50.802;4.336;2022-08-01T14:20:51;1.40;;;1.30;;
14470;SDS011;7321;50.802;4.336;2022-08-01T14:23:17;1.42;;;1.33;;
14470;SDS011;7321;50.802;4.336;2022-08-01T14:25:43;1.75;;;1.42;;
14470;SDS011;7321;50.802;4.336;2022-08-01T14:28:09;1.70;;;1.38;;
14470;SDS011;7321;50.802;4.336;2022-08-01T14:30:35;1.10;;;1.05;;
14470;SDS011;7321;50.802;4.336;2022-08-01T14:33:02;1.98;;;1.27;;
14470;SDS011;7321;50.802;4.336;2022-08-01T14:35:28;4.57;;;1.88;;
14470;SDS011;7321;50.802;4.336;2022-08-01T14:37:54;1.40;;;1.30;;
14470;SDS011;7321;50.802;4.336;2022-08-01T14:40:20;1.52;;;1.30;;
14470;SDS011;7321;50.802;4.336;2022-08-01T14:42:45;1.20;;;1.10;;
14470;SDS011;7321;50.802;4.336;2022-08-01T14:45:12;1.85;;;1.40;;
14470;SDS011;7321;50.802;4.336;2022-08-01T14:47:39;2.33;;;1.30;;
14470;SDS011;7321;50.802;4.336;2022-08-01T14:50:08;2.95;;;1.25;;
14470;SDS011;7321;50.802;4.336;2022-08-01T14:52:37;1.83;;;1.20;;
14470;SDS011;7321;50.802;4.336;2022-08-01T14:55:04;2.72;;;1.50;;
14470;SDS011;7321;50.802;4.336;2022-08-01T14:57:34;2.13;;;1.30;;
14470;SDS011;7321;50.802;4.336;2022-08-01T15:00:04;1.50;;;1.40;;
14470;SDS011;7321;50.802;4.336;2022-08-01T15:02:31;1.95;;;1.23;;
14470;SDS011;7321;50.802;4.336;2022-08-01T15:04:57;2.08;;;1.20;;
14470;SDS011;7321;50.802;4.336;2022-08-01T15:07:23;5.57;;;1.38;;
14470;SDS011;7321;50.802;4.336;2022-08-01T15:09:49;1.30;;;1.15;;
14470;SDS011;7321;50.802;4.336;2022-08-01T15:12:15;1.90;;;1.30;;
14470;SDS011;7321;50.802;4.336;2022-08-01T15:14:41;1.90;;;1.45;;
14470;SDS011;7321;50.802;4.336;2022-08-01T15:17:20;1.40;;;1.30;;
14470;SDS011;7321;50.802;4.336;2022-08-01T15:19:48;2.35;;;1.40;;
14470;SDS011;7321;50.802;4.336;2022-08-01T15:22:19;2.67;;;1.13;;
14470;SDS011;7321;50.802;4.336;2022-08-01T15:24:49;2.03;;;1.27;;
14470;SDS011;7321;50.802;4.336;2022-08-01T15:27:16;1.70;;;1.20;;
14470;SDS011;7321;50.802;4.336;2022-08-01T15:29:42;1.63;;;1.30;;
14470;SDS011;7321;50.802;4.336;2022-08-01T15:32:08;1.90;;;1.50;;
14470;SDS011;7321;50.802;4.336;2022-08-01T15:34:35;1.77;;;1.35;;
14470;SDS011;7321;50.802;4.336;2022-08-01T15:37:01;2.40;;;1.25;;
14470;SDS011;7321;50.802;4.336;2022-08-01T15:39:27;3.25;;;1.30;;
14470;SDS011;7321;50.802;4.336;2022-08-01T15:41:54;2.10;;;1.13;;
14470;SDS011;7321;50.802;4.336;2022-08-01T15:44:20;2.70;;;1.35;;
14470;SDS011;7321;50.802;4.336;2022-08-01T15:46:52;2.70;;;1.20;;
14470;SDS011;7321;50.802;4.336;2022-08-01T15:49:21;2.03;;;1.10;;